createdAt,value
2022-10-29T00:00:02.235Z,1018.392
2022-10-29T00:07:02.095Z,1018.392
2022-10-29T00:14:01.367Z,1018.449
2022-10-29T00:21:02.253Z,1018.449
2022-10-29T00:28:01.574Z,1018.602
2022-10-29T00:35:01.646Z,1018.602
2022-10-29T00:42:02.053Z,1018.559
2022-10-29T00:49:01.659Z,1018.493
2022-10-29T00:56:02.278Z,1018.493
2022-10-29T01:00:01.933Z,1018.493
2022-10-29T01:07:01.634Z,1018.409
2022-10-29T01:14:01.973Z,1018.409
2022-10-29T01:21:01.927Z,1018.323
2022-10-29T01:28:01.744Z,1018.288
2022-10-29T01:35:02.128Z,1018.288
2022-10-29T01:42:02.018Z,1018.246
2022-10-29T01:49:01.454Z,1018.246
2022-10-29T01:56:02.050Z,1018.109
2022-10-29T02:00:01.786Z,1018.109
2022-10-29T02:07:02.276Z,1017.959
2022-10-29T02:14:01.648Z,1017.959
2022-10-29T02:21:02.329Z,1017.878
2022-10-29T02:28:01.461Z,1017.878
2022-10-29T02:35:02.139Z,1017.767
2022-10-29T02:42:02.140Z,1017.767
2022-10-29T02:49:01.629Z,1017.681
2022-10-29T02:56:01.424Z,1017.681
2022-10-29T03:00:02.099Z,1017.622
2022-10-29T03:07:01.632Z,1017.622
2022-10-29T03:14:02.036Z,1017.715
2022-10-29T03:21:01.722Z,1017.715
2022-10-29T03:28:01.797Z,1017.554
2022-10-29T03:35:02.137Z,1017.554
2022-10-29T03:42:01.375Z,1017.378
2022-10-29T03:49:01.819Z,1017.508
2022-10-29T03:56:01.761Z,1017.508
2022-10-29T04:00:02.552Z,1017.508
2022-10-29T04:07:02.174Z,1017.251
2022-10-29T04:14:01.847Z,1017.251
2022-10-29T04:22:57.117Z,1017.364
2022-10-29T04:35:02.376Z,1017.292
2022-10-29T04:42:02.050Z,1017.083
2022-10-29T04:49:01.990Z,1017.083
2022-10-29T04:56:02.217Z,1016.771
2022-10-29T05:00:01.828Z,1016.771
2022-10-29T05:07:01.456Z,1016.77
2022-10-29T05:14:01.854Z,1016.77
2022-10-29T05:21:01.881Z,1016.818
2022-10-29T05:28:01.985Z,1016.818
2022-10-29T05:35:02.404Z,1016.708
2022-10-29T05:42:02.319Z,1016.708
2022-10-29T05:49:01.973Z,1016.803
2022-10-29T05:56:01.341Z,1016.803
2022-10-29T06:00:01.896Z,1016.746
2022-10-29T06:07:01.372Z,1016.746
2022-10-29T06:14:02.290Z,1016.593
2022-10-29T06:21:02.284Z,1016.593
2022-10-29T06:28:01.359Z,1016.581
2022-10-29T06:35:02.187Z,1016.581
2022-10-29T06:42:01.916Z,1016.558
2022-10-29T06:49:02.341Z,1016.594
2022-10-29T06:56:01.644Z,1016.594
2022-10-29T07:00:05.694Z,1016.594
2022-10-29T07:07:01.684Z,1016.647
2022-10-29T07:14:01.841Z,1016.647
2022-10-29T07:21:02.267Z,1016.606
2022-10-29T07:28:02.274Z,1016.652
2022-10-29T07:35:02.124Z,1016.652
2022-10-29T07:42:02.295Z,1016.77
2022-10-29T07:49:02.007Z,1016.77
2022-10-29T07:56:02.119Z,1016.866
2022-10-29T08:00:01.667Z,1016.866
2022-10-29T08:07:01.780Z,1016.767
2022-10-29T08:14:01.505Z,1016.767
2022-10-29T08:21:02.267Z,1016.815
2022-10-29T08:28:01.933Z,1016.815
2022-10-29T08:35:02.147Z,1016.494
2022-10-29T08:42:01.827Z,1016.494
2022-10-29T08:49:01.519Z,1016.542
2022-10-29T08:56:02.321Z,1016.542
2022-10-29T09:00:01.966Z,1016.598
2022-10-29T09:07:01.837Z,1016.598
2022-10-29T09:14:01.380Z,1016.576
2022-10-29T09:21:02.309Z,1016.576
2022-10-29T09:28:01.976Z,1016.515
2022-10-29T09:35:01.794Z,1016.515
2022-10-29T09:42:02.148Z,1016.406
2022-10-29T09:49:02.183Z,1016.37
2022-10-29T09:56:01.987Z,1016.37
2022-10-29T10:00:02.461Z,1016.37
2022-10-29T10:07:01.740Z,1016.219
2022-10-29T10:14:01.623Z,1016.219
2022-10-29T10:21:01.426Z,1016.268
2022-10-29T10:28:01.555Z,1016.203
2022-10-29T10:35:02.416Z,1016.203
2022-10-29T10:42:01.794Z,1016.02
2022-10-29T10:49:01.921Z,1016.02
2022-10-29T10:56:02.088Z,1016.011
2022-10-29T11:00:01.648Z,1016.011
2022-10-29T11:07:01.827Z,1015.909
2022-10-29T11:14:01.432Z,1015.909
2022-10-29T11:21:01.370Z,1015.772
2022-10-29T11:28:01.759Z,1015.772
2022-10-29T11:35:02.105Z,1015.734
2022-10-29T11:42:01.992Z,1015.734
2022-10-29T11:49:02.191Z,1015.769
2022-10-29T11:56:01.890Z,1015.769
2022-10-29T12:00:02.521Z,1015.623
2022-10-29T12:07:01.678Z,1015.623
2022-10-29T12:14:02.166Z,1015.456
2022-10-29T12:21:01.700Z,1015.456
2022-10-29T12:28:01.782Z,1015.355
2022-10-29T12:35:02.450Z,1015.355
2022-10-29T12:42:01.958Z,1015.233
2022-10-29T12:49:01.974Z,1015.108
2022-10-29T12:56:02.229Z,1015.108
2022-10-29T13:00:01.894Z,1015.108
2022-10-29T13:07:02.160Z,1014.961
2022-10-29T13:14:01.812Z,1014.961
2022-10-29T13:21:01.892Z,1014.959
2022-10-29T13:28:02.273Z,1014.706
2022-10-29T13:35:01.939Z,1014.706
2022-10-29T13:42:01.425Z,1014.553
2022-10-29T13:49:01.462Z,1014.553
2022-10-29T13:56:02.125Z,1014.406
2022-10-29T14:00:01.718Z,1014.406
2022-10-29T14:07:01.891Z,1014.397
2022-10-29T14:14:02.170Z,1014.397
2022-10-29T14:21:01.576Z,1014.32
2022-10-29T14:28:02.308Z,1014.32
2022-10-29T14:35:02.034Z,1014.105
2022-10-29T14:42:01.983Z,1014.105
2022-10-29T14:49:02.080Z,1014.142
2022-10-29T14:56:01.612Z,1014.142
2022-10-29T15:00:02.461Z,1014.127
2022-10-29T15:07:01.632Z,1014.127
2022-10-29T15:14:02.347Z,1014.057
2022-10-29T15:21:01.483Z,1014.057
2022-10-29T15:28:02.302Z,1014.039
2022-10-29T15:35:01.694Z,1014.039
2022-10-29T15:42:01.925Z,1014.029
2022-10-29T15:49:02.241Z,1014.08
2022-10-29T15:56:02.232Z,1014.08
2022-10-29T16:07:01.497Z,1013.997
2022-10-29T16:14:02.156Z,1013.997
2022-10-29T16:21:01.802Z,1013.88
2022-10-29T16:28:01.714Z,1013.817
2022-10-29T16:35:02.138Z,1013.817
2022-10-29T16:42:01.724Z,1013.786
2022-10-29T16:49:01.891Z,1013.786
2022-10-29T16:56:01.592Z,1013.82
2022-10-29T17:00:02.317Z,1013.82
2022-10-29T17:07:01.503Z,1013.737
2022-10-29T17:14:01.890Z,1013.737
2022-10-29T17:21:01.559Z,1013.851
2022-10-29T17:28:01.431Z,1013.851
2022-10-29T17:35:02.198Z,1013.895
2022-10-29T17:42:01.785Z,1013.895
2022-10-29T17:49:02.316Z,1013.9
2022-10-29T17:56:01.882Z,1013.9
2022-10-29T18:00:02.576Z,1013.87
2022-10-29T18:07:01.766Z,1013.87
2022-10-29T18:14:02.219Z,1013.912
2022-10-29T18:21:01.758Z,1013.912
2022-10-29T18:28:02.147Z,1013.879
2022-10-29T18:35:02.264Z,1013.879
2022-10-29T18:42:01.779Z,1013.841
2022-10-29T18:49:01.434Z,1013.863
2022-10-29T18:56:01.835Z,1013.863
2022-10-29T19:00:02.335Z,1013.863
2022-10-29T19:07:01.625Z,1013.774
2022-10-29T19:14:02.007Z,1013.774
2022-10-29T19:21:01.780Z,1013.834
2022-10-29T19:28:02.349Z,1013.846
2022-10-29T19:35:01.827Z,1013.846
2022-10-29T19:42:01.344Z,1013.835
2022-10-29T19:49:02.032Z,1013.835
2022-10-29T19:56:01.369Z,1013.862
2022-10-29T20:00:02.011Z,1013.862
2022-10-29T20:07:01.917Z,1013.981
2022-10-29T20:14:01.609Z,1013.981
2022-10-29T20:21:02.230Z,1014.006
2022-10-29T20:28:01.673Z,1014.006
2022-10-29T20:35:01.839Z,1013.956
2022-10-29T20:42:01.835Z,1013.956
2022-10-29T20:49:01.878Z,1013.76
2022-10-29T20:56:01.576Z,1013.76
2022-10-29T21:00:02.290Z,1013.853
2022-10-29T21:07:02.235Z,1013.853
2022-10-29T21:14:01.842Z,1014.159
2022-10-29T21:21:01.778Z,1014.159
2022-10-29T21:28:01.625Z,1014.192
2022-10-29T21:35:02.173Z,1014.192
2022-10-29T21:42:01.396Z,1014.299
2022-10-29T21:49:02.050Z,1014.189
2022-10-29T21:56:01.521Z,1014.189
2022-10-29T22:00:02.129Z,1014.189
2022-10-29T22:07:01.984Z,1014.392
2022-10-29T22:14:02.375Z,1014.41
2022-10-29T22:21:01.809Z,1014.41
2022-10-29T22:28:02.262Z,1014.303
2022-10-29T22:35:01.604Z,1014.303
2022-10-29T22:42:02.024Z,1014.311
2022-10-29T22:49:02.028Z,1014.311
2022-10-29T22:56:02.237Z,1014.222
2022-10-29T23:00:01.853Z,1014.222
2022-10-29T23:07:02.333Z,1014.188
2022-10-29T23:14:02.002Z,1014.188
2022-10-29T23:21:02.118Z,1014.304
2022-10-29T23:28:01.819Z,1014.304
2022-10-29T23:35:01.767Z,1014.202
2022-10-29T23:42:01.473Z,1014.202
2022-10-29T23:49:01.944Z,1014.229
2022-10-29T23:56:01.603Z,1014.229
